Georgetown, Minnesota
Current Conditions -  °F | °C
As of 10:29 AM on Sunday 21 Dec 2014 (Local Time) from KFAR Reporting Station
Haze Haze  
Wind Chill: 21°   Ceiling: 600
Heat Index: 32°   Visibility: 3mi
Dew Point: 28°   Wind: 16mph
Humidity: 85%   Direction: 150°SSE
Pressure: 29.7"   Gusts: NA
Location:  47.08°N, 96.79°W
Report Text: KFAR 211629Z 15014KT 3SM BR OVC006 00/M02 A2970 RMK AO2 T00001022
Loading
Personal Weather Stations






























Interactive Weather Map New forecast layout! Learn more

10-Day Weather Forecast

Advertisements
Track Severe Weather on mobile